Time;durP1;ratioP1;P1;durP2;ratioP2;P2;SDS_P1;SDS_P2;PMS_P1;PMS_P2;Temp;Humidity;BMP_temperature;BMP_pressure;BME280_temperature;BME280_humidity;BME280_pressure;Samples;Min_cycle;Max_cycle;Signal;HPM_P1;HPM_P2
2022/06/28 00:00:16;;;;;;;;;;;14.10;99.90;;;;;;5049300;28;20011;-82
2022/06/28 00:02:42;;;;;;;;;;;14.00;99.90;;;;;;5039859;28;20440;-83
2022/06/28 00:05:08;;;;;;;;;;;14.00;99.90;;;;;;5033980;28;20022;-82
2022/06/28 00:07:33;;;;;;;;;;;14.00;99.90;;;;;;5051650;28;19968;-82
2022/06/28 00:09:59;;;;;;;;;;;13.90;99.90;;;;;;5039744;28;22352;-83
2022/06/28 00:12:25;;;;;;;;;;;13.90;99.90;;;;;;5039929;28;19935;-83
2022/06/28 00:17:35;;;;;;;;;;;14.00;99.90;;;;;;5061495;28;19928;-82
2022/06/28 00:20:01;;;;;;;;;;;13.90;99.90;;;;;;5054432;28;19977;-82
2022/06/28 00:22:27;;;;;;;;;;;13.80;99.90;;;;;;5041001;28;19932;-82
2022/06/28 00:24:52;;;;;;;;;;;13.90;99.90;;;;;;5054111;28;19944;-82
2022/06/28 00:27:18;;;;;;;;;;;13.90;99.90;;;;;;5035713;28;20616;-83
2022/06/28 00:29:44;;;;;;;;;;;13.90;99.90;;;;;;5038962;28;19928;-83
2022/06/28 00:32:09;;;;;;;;;;;13.90;99.90;;;;;;5034019;28;20359;-82
2022/06/28 00:34:35;;;;;;;;;;;13.80;99.90;;;;;;5036141;28;19960;-83
2022/06/28 00:37:01;;;;;;;;;;;13.90;99.90;;;;;;5014804;28;20342;-84
2022/06/28 00:39:27;;;;;;;;;;;13.80;99.90;;;;;;5038517;28;20391;-82
2022/06/28 00:41:52;;;;;;;;;;;13.80;99.90;;;;;;5038956;28;20355;-82
2022/06/28 00:44:19;;;;;;;;;;;13.90;99.90;;;;;;5056795;28;20621;-83
2022/06/28 00:46:45;;;;;;;;;;;13.90;99.90;;;;;;5037336;28;19939;-82
2022/06/28 00:49:12;;;;;;;;;;;13.90;99.90;;;;;;5054464;28;19928;-83
2022/06/28 00:51:38;;;;;;;;;;;13.90;99.90;;;;;;5054695;28;20432;-83
2022/06/28 00:54:04;;;;;;;;;;;13.90;99.90;;;;;;5036202;28;19928;-83
2022/06/28 00:56:30;;;;;;;;;;;13.80;99.90;;;;;;5042009;28;20177;-84
2022/06/28 00:58:56;;;;;;;;;;;13.80;99.90;;;;;;5022238;28;19963;-82
2022/06/28 01:01:22;;;;;;;;;;;13.70;99.90;;;;;;5048469;28;19928;-83
2022/06/28 01:03:48;;;;;;;;;;;13.80;99.90;;;;;;5040068;28;19928;-84
2022/06/28 01:06:17;;;;;;;;;;;13.70;99.90;;;;;;5040497;28;20388;-83
2022/06/28 01:08:45;;;;;;;;;;;13.70;99.90;;;;;;5039905;28;19974;-83
2022/06/28 01:11:21;;;;;;;;;;;13.80;99.90;;;;;;5022253;28;19986;-83
2022/06/28 01:13:51;;;;;;;;;;;13.80;99.90;;;;;;5039474;28;20003;-82
2022/06/28 01:16:18;;;;;;;;;;;13.70;99.90;;;;;;5040820;28;19971;-83
2022/06/28 01:18:44;;;;;;;;;;;13.70;99.90;;;;;;5037686;28;19928;-82
2022/06/28 01:21:12;;;;;;;;;;;13.80;99.90;;;;;;5052588;28;19928;-82
2022/06/28 01:23:37;;;;;;;;;;;13.80;99.90;;;;;;5055433;28;20000;-82
2022/06/28 01:26:03;;;;;;;;;;;13.50;99.90;;;;;;5038157;28;20360;-82
2022/06/28 01:28:30;;;;;;;;;;;13.50;99.90;;;;;;5039052;28;20067;-82
2022/06/28 01:30:56;;;;;;;;;;;13.60;99.90;;;;;;5036928;28;19960;-83
2022/06/28 01:33:22;;;;;;;;;;;13.60;99.90;;;;;;5041196;28;20023;-82
2022/06/28 01:35:48;;;;;;;;;;;13.50;99.90;;;;;;5053867;28;19936;-82
2022/06/28 01:38:14;;;;;;;;;;;13.60;99.90;;;;;;5055940;28;20373;-82
2022/06/28 01:40:44;;;;;;;;;;;13.60;99.90;;;;;;5043001;28;19932;-82
2022/06/28 01:43:10;;;;;;;;;;;13.50;99.90;;;;;;5036697;28;20010;-83
2022/06/28 01:45:36;;;;;;;;;;;13.50;99.90;;;;;;5037248;28;19936;-82
2022/06/28 01:48:02;;;;;;;;;;;13.50;99.90;;;;;;5038667;28;19932;-81
2022/06/28 01:50:28;;;;;;;;;;;13.50;99.90;;;;;;5055694;28;19950;-82
2022/06/28 01:52:54;;;;;;;;;;;13.50;99.90;;;;;;5011978;28;20039;-82
2022/06/28 01:55:20;;;;;;;;;;;13.50;99.90;;;;;;5054769;28;20309;-82
2022/06/28 01:57:46;;;;;;;;;;;13.50;99.90;;;;;;5055087;28;19932;-82
2022/06/28 02:00:12;;;;;;;;;;;13.30;99.90;;;;;;5053657;28;23146;-82
2022/06/28 02:02:37;;;;;;;;;;;13.30;99.90;;;;;;5058056;28;20397;-82
2022/06/28 02:05:03;;;;;;;;;;;13.30;99.90;;;;;;5037721;28;19934;-81
2022/06/28 02:07:29;;;;;;;;;;;13.20;99.90;;;;;;5022773;28;20772;-82
2022/06/28 02:09:54;;;;;;;;;;;13.20;99.90;;;;;;5022070;28;20012;-82
2022/06/28 02:12:20;;;;;;;;;;;13.30;99.90;;;;;;5039193;28;19928;-82
2022/06/28 02:14:46;;;;;;;;;;;13.30;99.90;;;;;;5054313;28;20551;-82
2022/06/28 02:17:12;;;;;;;;;;;13.30;99.90;;;;;;5057669;28;19928;-82
2022/06/28 02:19:37;;;;;;;;;;;13.30;99.90;;;;;;5041382;28;19964;-82
2022/06/28 02:22:03;;;;;;;;;;;13.20;99.90;;;;;;5058876;28;19935;-82
2022/06/28 02:24:29;;;;;;;;;;;13.20;99.90;;;;;;5061321;28;19933;-82
2022/06/28 02:26:55;;;;;;;;;;;13.20;99.90;;;;;;5063800;28;19935;-82
2022/06/28 02:29:20;;;;;;;;;;;13.30;99.90;;;;;;5059862;28;19931;-81
2022/06/28 02:31:46;;;;;;;;;;;13.30;99.90;;;;;;5056250;28;19932;-82
2022/06/28 02:40:21;;;;;;;;;;;13.20;99.90;;;;;;5058320;28;20019;-81
2022/06/28 02:42:27;;;;;;;;;;;13.30;99.90;;;;;;5038475;28;19929;-82
2022/06/28 02:44:53;;;;;;;;;;;13.40;99.90;;;;;;5055964;28;20641;-81
2022/06/28 02:47:18;;;;;;;;;;;13.40;99.90;;;;;;5058056;28;20580;-82
2022/06/28 02:49:44;;;;;;;;;;;13.30;99.90;;;;;;5038129;28;19928;-81
2022/06/28 02:52:10;;;;;;;;;;;13.40;99.90;;;;;;5060026;28;20051;-82
2022/06/28 02:54:35;;;;;;;;;;;13.60;99.90;;;;;;5061003;28;19943;-81
2022/06/28 02:57:01;;;;;;;;;;;13.50;99.90;;;;;;5057215;28;19940;-81
2022/06/28 02:59:27;;;;;;;;;;;13.60;99.90;;;;;;5060090;28;19929;-82
2022/06/28 03:01:52;;;;;;;;;;;13.60;99.90;;;;;;5039547;28;19927;-81
2022/06/28 03:04:18;;;;;;;;;;;13.60;99.90;;;;;;5040962;28;20192;-82
2022/06/28 03:06:44;;;;;;;;;;;13.60;99.90;;;;;;5061620;28;19929;-81
2022/06/28 03:09:10;;;;;;;;;;;13.70;99.90;;;;;;5023531;28;19939;-82
2022/06/28 03:11:36;;;;;;;;;;;13.60;99.90;;;;;;5062896;28;19928;-81
2022/06/28 03:14:02;;;;;;;;;;;13.50;99.90;;;;;;5054803;28;20486;-81
2022/06/28 03:16:28;;;;;;;;;;;13.60;99.90;;;;;;5037212;28;20299;-80
2022/06/28 03:18:54;;;;;;;;;;;13.50;99.90;;;;;;5039515;28;19939;-81
2022/06/28 03:21:19;;;;;;;;;;;13.60;99.90;;;;;;5057908;28;19928;-81
2022/06/28 03:23:45;;;;;;;;;;;13.50;99.90;;;;;;5064343;28;19929;-81
2022/06/28 03:26:11;;;;;;;;;;;13.40;99.90;;;;;;5057139;28;21373;-80
2022/06/28 03:28:36;;;;;;;;;;;13.50;99.90;;;;;;5058664;28;19933;-81
2022/06/28 03:31:02;;;;;;;;;;;13.50;99.90;;;;;;5039586;28;20485;-81
2022/06/28 03:33:28;;;;;;;;;;;13.60;99.90;;;;;;5034002;28;19939;-81
2022/06/28 03:35:54;;;;;;;;;;;13.50;99.90;;;;;;5057308;28;19928;-81
2022/06/28 03:38:19;;;;;;;;;;;13.40;99.90;;;;;;5060084;28;19982;-81
2022/06/28 03:40:45;;;;;;;;;;;13.40;99.90;;;;;;5056100;28;20017;-81
2022/06/28 03:43:11;;;;;;;;;;;13.40;99.90;;;;;;5045232;28;19935;-81
2022/06/28 03:45:36;;;;;;;;;;;13.40;99.90;;;;;;5038778;28;19943;-81
2022/06/28 03:48:02;;;;;;;;;;;13.40;99.90;;;;;;5054255;28;19929;-81
2022/06/28 03:50:28;;;;;;;;;;;13.40;99.90;;;;;;5058612;28;20617;-81
2022/06/28 03:52:54;;;;;;;;;;;13.30;99.90;;;;;;5057751;28;19928;-81
2022/06/28 03:55:20;;;;;;;;;;;13.40;99.90;;;;;;5034485;28;19953;-81
2022/06/28 03:57:46;;;;;;;;;;;13.30;99.90;;;;;;5035804;28;19932;-81
2022/06/28 04:00:12;;;;;;;;;;;13.30;99.90;;;;;;5058749;28;20051;-80
2022/06/28 04:02:37;;;;;;;;;;;13.30;99.90;;;;;;5049939;28;19924;-81
2022/06/28 04:05:03;;;;;;;;;;;13.30;99.90;;;;;;5053504;28;19932;-81
2022/06/28 04:07:29;;;;;;;;;;;13.40;99.90;;;;;;5057191;28;19935;-81
2022/06/28 04:09:54;;;;;;;;;;;13.50;99.90;;;;;;5034789;28;19954;-81
2022/06/28 04:12:20;;;;;;;;;;;13.40;99.90;;;;;;5035109;28;20051;-81
2022/06/28 04:14:46;;;;;;;;;;;13.40;99.90;;;;;;5055522;28;20251;-81
2022/06/28 04:17:11;;;;;;;;;;;13.50;99.90;;;;;;5057229;28;19937;-81
2022/06/28 04:19:38;;;;;;;;;;;13.50;99.90;;;;;;5056930;28;19928;-81
2022/06/28 04:22:04;;;;;;;;;;;13.50;99.90;;;;;;5053016;28;19925;-81
2022/06/28 04:24:30;;;;;;;;;;;13.60;99.90;;;;;;5055539;28;19924;-81
2022/06/28 04:26:56;;;;;;;;;;;13.70;99.90;;;;;;5056164;28;19928;-81
2022/06/28 04:29:21;;;;;;;;;;;13.60;99.90;;;;;;5057557;28;20429;-81
2022/06/28 04:31:47;;;;;;;;;;;13.80;99.90;;;;;;5056439;28;19928;-81
2022/06/28 04:34:13;;;;;;;;;;;13.70;99.90;;;;;;5016053;28;19994;-81
2022/06/28 04:36:39;;;;;;;;;;;13.80;99.90;;;;;;5058225;28;20015;-81
2022/06/28 04:39:04;;;;;;;;;;;13.70;99.90;;;;;;5056695;28;20819;-81
2022/06/28 04:41:30;;;;;;;;;;;13.90;99.90;;;;;;5059274;28;20011;-81
2022/06/28 04:43:56;;;;;;;;;;;14.00;99.90;;;;;;5057653;28;19928;-81
2022/06/28 04:46:22;;;;;;;;;;;15.50;99.90;;;;;;5016282;28;19927;-82
2022/06/28 04:48:48;;;;;;;;;;;16.50;99.90;;;;;;5030474;28;20289;-81
2022/06/28 04:51:14;;;;;;;;;;;17.60;99.90;;;;;;5027141;28;20028;-81
2022/06/28 04:53:44;;;;;;;;;;;18.50;99.90;;;;;;5010953;28;19931;-82
2022/06/28 04:56:10;;;;;;;;;;;19.20;99.90;;;;;;5033746;28;19936;-81
2022/06/28 04:58:35;;;;;;;;;;;20.00;99.90;;;;;;5029650;28;20407;-82
2022/06/28 05:01:02;;;;;;;;;;;20.60;99.90;;;;;;5011461;28;20351;-82
2022/06/28 05:03:28;;;;;;;;;;;21.10;99.90;;;;;;5010648;28;19937;-82
2022/06/28 05:05:54;;;;;;;;;;;21.60;99.90;;;;;;5027912;28;20023;-81
2022/06/28 05:08:20;;;;;;;;;;;22.00;99.90;;;;;;5048594;28;19966;-82
2022/06/28 05:10:46;;;;;;;;;;;22.60;99.90;;;;;;5025242;28;19932;-82
2022/06/28 05:13:11;;;;;;;;;;;22.80;99.90;;;;;;5035572;28;20290;-82
2022/06/28 05:15:38;;;;;;;;;;;23.10;99.90;;;;;;5034140;28;19928;-83
2022/06/28 05:18:03;;;;;;;;;;;23.30;99.90;;;;;;5048244;28;19935;-81
2022/06/28 05:20:29;;;;;;;;;;;23.50;99.90;;;;;;5052303;28;19928;-82
2022/06/28 05:22:55;;;;;;;;;;;23.60;99.90;;;;;;5057633;28;19928;-83
2022/06/28 05:25:21;;;;;;;;;;;23.40;99.90;;;;;;5038761;28;19951;-82
2022/06/28 05:27:46;;;;;;;;;;;23.80;99.90;;;;;;5034188;28;20035;-82
2022/06/28 05:30:12;;;;;;;;;;;24.00;99.90;;;;;;5037584;28;21549;-81
2022/06/28 05:32:38;;;;;;;;;;;23.90;99.90;;;;;;5034316;28;20063;-82
2022/06/28 05:35:04;;;;;;;;;;;24.60;99.90;;;;;;5038600;28;19938;-83
2022/06/28 05:37:30;;;;;;;;;;;24.20;99.90;;;;;;5044405;28;20020;-82
2022/06/28 05:39:56;;;;;;;;;;;24.20;99.90;;;;;;5036959;28;20051;-82
2022/06/28 05:42:21;;;;;;;;;;;23.30;99.90;;;;;;5033203;28;19932;-82
2022/06/28 05:44:47;;;;;;;;;;;22.90;99.90;;;;;;5035565;28;19928;-85
2022/06/28 05:47:13;;;;;;;;;;;22.50;99.90;;;;;;5050611;28;19978;-82
2022/06/28 05:49:38;;;;;;;;;;;22.40;99.90;;;;;;5039837;28;19932;-83
2022/06/28 05:52:05;;;;;;;;;;;20.90;99.90;;;;;;5030721;28;20002;-83
2022/06/28 05:54:31;;;;;;;;;;;20.40;99.90;;;;;;5008869;28;19928;-80
2022/06/28 05:56:57;;;;;;;;;;;20.70;99.90;;;;;;5027881;28;19934;-80
2022/06/28 05:59:23;;;;;;;;;;;20.50;99.90;;;;;;5048380;28;20036;-81
2022/06/28 06:01:49;;;;;;;;;;;20.50;99.90;;;;;;5050270;28;20044;-82
2022/06/28 06:04:15;;;;;;;;;;;20.60;99.90;;;;;;5042145;28;20011;-82
2022/06/28 06:06:40;;;;;;;;;;;20.40;99.90;;;;;;5048704;28;19987;-81
2022/06/28 06:09:06;;;;;;;;;;;20.10;99.90;;;;;;5026992;28;19928;-82
2022/06/28 06:11:32;;;;;;;;;;;20.50;99.90;;;;;;5025059;28;19928;-82
2022/06/28 06:13:57;;;;;;;;;;;20.70;99.90;;;;;;5045261;28;19939;-81
2022/06/28 06:16:23;;;;;;;;;;;20.40;99.90;;;;;;5042568;28;19971;-83
2022/06/28 06:18:49;;;;;;;;;;;20.20;99.90;;;;;;5041961;28;19943;-82
2022/06/28 06:21:15;;;;;;;;;;;20.40;99.90;;;;;;5027491;28;19932;-82
2022/06/28 06:23:40;;;;;;;;;;;20.10;99.90;;;;;;5027879;28;19928;-83
2022/06/28 06:26:06;;;;;;;;;;;20.00;99.90;;;;;;5048479;28;19935;-81
2022/06/28 06:28:34;;;;;;;;;;;20.30;99.90;;;;;;5045894;28;20082;-82
2022/06/28 06:31:00;;;;;;;;;;;20.10;99.90;;;;;;5043206;28;19932;-83
2022/06/28 06:33:25;;;;;;;;;;;20.10;99.90;;;;;;5027080;28;19939;-81
2022/06/28 06:35:51;;;;;;;;;;;19.80;99.90;;;;;;5046240;28;19929;-83
2022/06/28 06:38:17;;;;;;;;;;;20.20;99.90;;;;;;5008464;28;20120;-82
2022/06/28 06:40:43;;;;;;;;;;;19.90;99.90;;;;;;5045918;28;19928;-82
2022/06/28 06:43:08;;;;;;;;;;;20.50;99.90;;;;;;5028820;28;19934;-81
2022/06/28 06:45:34;;;;;;;;;;;20.40;99.90;;;;;;5039754;28;19934;-84
2022/06/28 06:48:00;;;;;;;;;;;20.50;99.90;;;;;;5044771;28;21191;-84
2022/06/28 06:50:25;;;;;;;;;;;20.30;99.90;;;;;;5009534;28;19955;-82
2022/06/28 06:52:51;;;;;;;;;;;20.40;99.90;;;;;;5006100;28;20040;-81
2022/06/28 06:55:17;;;;;;;;;;;20.50;99.90;;;;;;5024472;28;20405;-82
2022/06/28 06:57:43;;;;;;;;;;;20.80;99.90;;;;;;5034340;28;19932;-83
2022/06/28 07:00:10;;;;;;;;;;;20.50;99.90;;;;;;5037440;28;19935;-81
2022/06/28 07:02:40;;;;;;;;;;;20.30;99.90;;;;;;5051423;28;20005;-82
2022/06/28 07:05:06;;;;;;;;;;;20.60;99.90;;;;;;5033423;28;19934;-82
2022/06/28 07:07:31;;;;;;;;;;;20.70;99.90;;;;;;5038965;28;19932;-82
2022/06/28 07:09:58;;;;;;;;;;;20.60;99.90;;;;;;5036997;28;19971;-82
2022/06/28 07:12:24;;;;;;;;;;;20.60;99.90;;;;;;5056795;28;19928;-82
2022/06/28 07:14:50;;;;;;;;;;;20.70;99.90;;;;;;5053486;28;19979;-82
2022/06/28 07:17:15;;;;;;;;;;;21.00;99.90;;;;;;5020078;28;20685;-83
2022/06/28 07:19:41;;;;;;;;;;;21.20;99.90;;;;;;5032795;28;21064;-80
2022/06/28 07:22:07;;;;;;;;;;;21.10;99.90;;;;;;5022583;28;20268;-83
2022/06/28 07:24:33;;;;;;;;;;;21.00;99.90;;;;;;5050479;28;20484;-82
2022/06/28 07:26:59;;;;;;;;;;;20.80;99.90;;;;;;5061524;28;20564;-82
2022/06/28 07:29:24;;;;;;;;;;;21.00;99.90;;;;;;5050006;28;19934;-80
2022/06/28 07:31:50;;;;;;;;;;;21.20;99.90;;;;;;5039140;28;19924;-81
2022/06/28 07:34:16;;;;;;;;;;;21.30;99.90;;;;;;5036324;28;19986;-81
2022/06/28 07:36:42;;;;;;;;;;;21.30;99.90;;;;;;5019499;28;20327;-83
2022/06/28 07:39:07;;;;;;;;;;;21.40;99.90;;;;;;5034275;28;20687;-83
2022/06/28 07:41:33;;;;;;;;;;;21.40;99.90;;;;;;5053222;28;19929;-82
2022/06/28 07:43:59;;;;;;;;;;;21.30;99.90;;;;;;5039093;28;20187;-82
2022/06/28 07:46:24;;;;;;;;;;;21.80;99.90;;;;;;5061236;28;20720;-82
2022/06/28 07:48:50;;;;;;;;;;;22.10;99.90;;;;;;5059131;28;19924;-81
2022/06/28 07:54:01;;;;;;;;;;;21.90;99.90;;;;;;5055188;28;19928;-82
2022/06/28 07:56:27;;;;;;;;;;;22.20;99.90;;;;;;5055424;28;19986;-87
2022/06/28 07:58:52;;;;;;;;;;;22.10;99.90;;;;;;5040505;28;20449;-83
2022/06/28 08:01:18;;;;;;;;;;;22.00;99.90;;;;;;5053197;28;19958;-82
2022/06/28 08:03:44;;;;;;;;;;;22.10;99.90;;;;;;5033526;28;19932;-82
2022/06/28 08:06:09;;;;;;;;;;;22.10;99.90;;;;;;5027535;28;19974;-81
2022/06/28 08:08:35;;;;;;;;;;;22.00;99.90;;;;;;5050735;28;20397;-84
2022/06/28 08:11:01;;;;;;;;;;;21.80;99.90;;;;;;5011787;28;19935;-83
2022/06/28 08:13:27;;;;;;;;;;;21.40;99.90;;;;;;5020083;28;19928;-83
2022/06/28 08:15:52;;;;;;;;;;;21.50;99.90;;;;;;5036512;28;20027;-83
2022/06/28 08:18:18;;;;;;;;;;;21.80;99.90;;;;;;5059403;28;20305;-82
2022/06/28 08:20:44;;;;;;;;;;;21.90;99.90;;;;;;5053728;28;19928;-87
2022/06/28 08:23:10;;;;;;;;;;;21.60;99.90;;;;;;5033021;28;19928;-82
2022/06/28 08:25:36;;;;;;;;;;;21.70;99.90;;;;;;5014701;28;19928;-83
2022/06/28 08:28:16;;;;;;;;;;;21.90;99.90;;;;;;5054724;28;20753;-82
2022/06/28 08:30:42;;;;;;;;;;;21.90;99.90;;;;;;5047837;28;20023;-83
2022/06/28 08:33:08;;;;;;;;;;;21.90;99.90;;;;;;5062743;28;19958;-82
2022/06/28 08:35:34;;;;;;;;;;;22.00;99.90;;;;;;5058669;28;19928;-84
2022/06/28 08:38:06;;;;;;;;;;;22.20;99.90;;;;;;5043744;28;19928;-86
2022/06/28 08:40:32;;;;;;;;;;;22.30;99.90;;;;;;5063608;28;19985;-84
2022/06/28 08:42:59;;;;;;;;;;;22.20;99.90;;;;;;5056138;28;19928;-83
2022/06/28 08:45:25;;;;;;;;;;;22.30;99.90;;;;;;5035248;28;20415;-83
2022/06/28 08:47:52;;;;;;;;;;;21.90;99.90;;;;;;5042525;28;19931;-84
2022/06/28 08:50:23;;;;;;;;;;;21.40;99.90;;;;;;5053277;28;20029;-83
2022/06/28 08:52:49;;;;;;;;;;;22.10;99.90;;;;;;5038481;28;20686;-82
2022/06/28 08:55:15;;;;;;;;;;;22.40;99.90;;;;;;5038113;28;20399;-81
2022/06/28 08:57:42;;;;;;;;;;;22.50;99.90;;;;;;5056195;28;20033;-82
2022/06/28 09:00:09;;;;;;;;;;;22.50;99.90;;;;;;5058205;28;19983;-83
2022/06/28 09:02:34;;;;;;;;;;;22.70;99.90;;;;;;5032058;28;19928;-81
2022/06/28 09:05:01;;;;;;;;;;;22.60;99.90;;;;;;5059633;28;19935;-84
2022/06/28 09:07:27;;;;;;;;;;;22.70;99.90;;;;;;5061482;28;19935;-82
2022/06/28 09:09:52;;;;;;;;;;;23.00;99.90;;;;;;5055333;28;19929;-82
2022/06/28 09:12:19;;;;;;;;;;;23.00;99.90;;;;;;5059383;28;20629;-86
2022/06/28 09:14:45;;;;;;;;;;;23.20;99.90;;;;;;5038556;28;20398;-84
2022/06/28 09:17:18;;;;;;;;;;;23.20;99.90;;;;;;5042053;28;19928;-82
2022/06/28 09:19:44;;;;;;;;;;;23.20;99.90;;;;;;5042250;28;20381;-79
2022/06/28 09:22:28;;;;;;;;;;;23.30;99.90;;;;;;5058839;28;19981;-84
2022/06/28 09:24:54;;;;;;;;;;;22.80;99.90;;;;;;5039492;28;20437;-85
2022/06/28 09:27:27;;;;;;;;;;;22.30;99.90;;;;;;5041611;28;19928;-85
2022/06/28 09:29:52;;;;;;;;;;;21.70;99.90;;;;;;5002638;28;19935;-83
2022/06/28 09:32:25;;;;;;;;;;;22.00;99.90;;;;;;5060582;28;20762;-82
2022/06/28 09:34:56;;;;;;;;;;;22.00;99.90;;;;;;5059590;28;19935;-84
2022/06/28 09:37:32;;;;;;;;;;;22.50;99.90;;;;;;5060846;28;20043;-83
2022/06/28 09:40:07;;;;;;;;;;;22.90;99.90;;;;;;5056482;28;20228;-84
2022/06/28 09:42:33;;;;;;;;;;;23.20;99.90;;;;;;5062511;28;19928;-82
2022/06/28 09:44:59;;;;;;;;;;;23.30;99.90;;;;;;5041617;28;19963;-87
2022/06/28 09:47:24;;;;;;;;;;;23.50;99.90;;;;;;5042179;28;19932;-82
2022/06/28 09:49:50;;;;;;;;;;;23.60;99.90;;;;;;5060392;28;19977;-84
2022/06/28 09:52:17;;;;;;;;;;;23.50;99.90;;;;;;5037223;28;20010;-85
2022/06/28 09:54:46;;;;;;;;;;;23.50;99.90;;;;;;5041563;28;20110;-88
2022/06/28 09:57:12;;;;;;;;;;;23.70;99.90;;;;;;5057372;28;19939;-82
2022/06/28 09:59:38;;;;;;;;;;;23.80;99.90;;;;;;5058527;28;19932;-83
2022/06/28 10:02:03;;;;;;;;;;;24.00;99.90;;;;;;5060843;28;19996;-81
2022/06/28 10:04:29;;;;;;;;;;;23.90;99.90;;;;;;5038268;28;19932;-88
2022/06/28 10:06:55;;;;;;;;;;;24.00;99.90;;;;;;5043440;28;20641;-83
2022/06/28 10:09:21;;;;;;;;;;;24.10;99.90;;;;;;5061824;28;19924;-85
2022/06/28 10:17:23;;;;;;;;;;;24.10;99.90;;;;;;5057726;28;19932;-82
2022/06/28 10:19:49;;;;;;;;;;;24.30;99.90;;;;;;5061235;28;20314;-85
2022/06/28 10:22:15;;;;;;;;;;;24.30;99.90;;;;;;5038330;28;19928;-83
2022/06/28 10:24:50;;;;;;;;;;;24.40;99.90;;;;;;5017034;28;20242;-82
2022/06/28 10:27:15;;;;;;;;;;;24.60;99.90;;;;;;5057882;28;19932;-83
2022/06/28 10:30:09;;;;;;;;;;;24.80;99.90;;;;;;5038758;28;19974;-84
2022/06/28 10:32:37;;;;;;;;;;;24.90;99.90;;;;;;5055367;28;20291;-85
2022/06/28 10:35:03;;;;;;;;;;;24.90;99.90;;;;;;5062503;28;20407;-84
2022/06/28 10:37:29;;;;;;;;;;;24.90;99.90;;;;;;5027578;28;19928;-82
2022/06/28 10:40:14;;;;;;;;;;;24.70;99.90;;;;;;5065988;28;20401;-82
2022/06/28 10:42:49;;;;;;;;;;;24.90;99.90;;;;;;5043705;28;20393;-83
2022/06/28 10:45:15;;;;;;;;;;;25.00;99.90;;;;;;5064215;28;19931;-84
2022/06/28 10:47:59;;;;;;;;;;;25.00;99.90;;;;;;5055698;28;20069;-84
2022/06/28 10:50:25;;;;;;;;;;;25.50;99.90;;;;;;5061792;28;20476;-83
2022/06/28 10:53:01;;;;;;;;;;;25.00;99.90;;;;;;5064251;28;19935;-85
2022/06/28 10:55:27;;;;;;;;;;;24.80;99.90;;;;;;5039962;28;19928;-82
2022/06/28 10:58:06;;;;;;;;;;;25.10;99.90;;;;;;5041860;28;19928;-83
2022/06/28 11:00:34;;;;;;;;;;;25.20;99.90;;;;;;5059384;28;20425;-83
2022/06/28 11:03:01;;;;;;;;;;;24.70;99.90;;;;;;5059463;28;20409;-83
2022/06/28 11:05:46;;;;;;;;;;;24.90;99.90;;;;;;5058802;28;21174;-83
2022/06/28 11:08:14;;;;;;;;;;;25.00;99.90;;;;;;5056653;28;19939;-83
2022/06/28 11:10:59;;;;;;;;;;;25.10;99.90;;;;;;5056770;28;19932;-82
2022/06/28 11:13:25;;;;;;;;;;;25.30;99.90;;;;;;5038455;28;19939;-80
2022/06/28 11:15:50;;;;;;;;;;;25.40;99.90;;;;;;5058436;28;19990;-84
2022/06/28 11:18:17;;;;;;;;;;;25.00;99.90;;;;;;5058474;28;20031;-83
2022/06/28 11:20:43;;;;;;;;;;;25.30;99.90;;;;;;5061131;28;20342;-87
2022/06/28 11:23:08;;;;;;;;;;;24.80;99.90;;;;;;5059528;28;19925;-84
2022/06/28 11:28:21;;;;;;;;;;;24.50;99.90;;;;;;5057964;28;19928;-85
2022/06/28 11:30:46;;;;;;;;;;;24.80;99.90;;;;;;5061232;28;19928;-87
2022/06/28 11:33:12;;;;;;;;;;;25.00;99.90;;;;;;5062763;28;19924;-83
2022/06/28 11:35:38;;;;;;;;;;;25.10;99.90;;;;;;5055974;28;20852;-85
2022/06/28 11:38:08;;;;;;;;;;;25.10;99.90;;;;;;5044455;28;19928;-83
2022/06/28 11:40:50;;;;;;;;;;;25.60;99.90;;;;;;5054647;28;19933;-86
2022/06/28 11:43:18;;;;;;;;;;;25.60;99.90;;;;;;5039670;28;19932;-84
2022/06/28 11:45:48;;;;;;;;;;;25.90;99.90;;;;;;5061575;28;20596;-82
2022/06/28 11:48:17;;;;;;;;;;;25.70;99.90;;;;;;5058100;28;20003;-85
2022/06/28 11:50:47;;;;;;;;;;;25.00;99.90;;;;;;5062768;28;19928;-84
2022/06/28 11:53:13;;;;;;;;;;;25.10;99.90;;;;;;5063397;28;20176;-83
2022/06/28 11:55:40;;;;;;;;;;;25.30;99.90;;;;;;5024176;28;20381;-85
2022/06/28 11:58:12;;;;;;;;;;;25.30;99.90;;;;;;5058552;28;19993;-83
2022/06/28 12:00:37;;;;;;;;;;;25.50;99.90;;;;;;5061024;28;19939;-82
2022/06/28 12:03:06;;;;;;;;;;;25.80;99.90;;;;;;5041211;28;19963;-83
2022/06/28 12:05:35;;;;;;;;;;;25.60;99.90;;;;;;5058151;28;19928;-81
2022/06/28 12:08:01;;;;;;;;;;;25.70;99.70;;;;;;5059557;28;20741;-80
2022/06/28 12:10:31;;;;;;;;;;;25.00;99.10;;;;;;5039910;28;19932;-81
2022/06/28 12:12:58;;;;;;;;;;;25.70;99.90;;;;;;5056809;28;20484;-81
2022/06/28 12:15:24;;;;;;;;;;;26.00;99.90;;;;;;5037703;28;20727;-82
2022/06/28 12:17:50;;;;;;;;;;;26.40;99.90;;;;;;5033432;28;19928;-80
2022/06/28 12:20:16;;;;;;;;;;;26.40;99.10;;;;;;5060282;28;19928;-81
2022/06/28 12:22:42;;;;;;;;;;;26.40;99.90;;;;;;5051337;28;19964;-83
2022/06/28 12:25:09;;;;;;;;;;;26.20;99.90;;;;;;5051880;28;19928;-86
2022/06/28 12:27:36;;;;;;;;;;;26.20;99.90;;;;;;5030401;28;20650;-80
2022/06/28 12:30:03;;;;;;;;;;;26.50;99.90;;;;;;5055241;28;20019;-82
2022/06/28 12:32:29;;;;;;;;;;;26.50;99.90;;;;;;5060598;28;19928;-87
2022/06/28 12:34:59;;;;;;;;;;;26.20;99.90;;;;;;5055366;28;20289;-81
2022/06/28 12:37:27;;;;;;;;;;;25.50;99.90;;;;;;5055743;28;19928;-81
2022/06/28 12:39:55;;;;;;;;;;;25.80;99.90;;;;;;5051723;28;19928;-81
2022/06/28 12:42:20;;;;;;;;;;;26.10;99.90;;;;;;5047248;28;19928;-83
2022/06/28 12:44:46;;;;;;;;;;;26.40;99.90;;;;;;5057871;28;19977;-83
2022/06/28 12:47:12;;;;;;;;;;;26.50;99.90;;;;;;5033280;28;20412;-83
2022/06/28 12:49:37;;;;;;;;;;;26.80;99.90;;;;;;5050306;28;20384;-81
2022/06/28 12:52:04;;;;;;;;;;;26.50;99.90;;;;;;5047687;28;19929;-83
2022/06/28 12:54:29;;;;;;;;;;;27.00;99.90;;;;;;5044331;28;19928;-86
2022/06/28 12:56:55;;;;;;;;;;;26.80;98.70;;;;;;5053503;28;19934;-82
2022/06/28 12:59:21;;;;;;;;;;;26.50;99.90;;;;;;5056134;28;19989;-82
2022/06/28 13:01:47;;;;;;;;;;;26.30;99.90;;;;;;5057851;28;19928;-82
2022/06/28 13:04:14;;;;;;;;;;;25.50;99.50;;;;;;5054522;28;20100;-84
2022/06/28 13:06:42;;;;;;;;;;;26.10;99.90;;;;;;5056119;28;19972;-84
2022/06/28 13:09:08;;;;;;;;;;;26.40;99.90;;;;;;5035379;28;19928;-85
2022/06/28 13:11:34;;;;;;;;;;;26.60;99.90;;;;;;5060549;28;19961;-83
2022/06/28 13:14:00;;;;;;;;;;;26.10;99.90;;;;;;5056946;28;19924;-82
2022/06/28 13:16:28;;;;;;;;;;;25.90;99.90;;;;;;5055725;28;20336;-82
2022/06/28 13:18:54;;;;;;;;;;;25.90;99.90;;;;;;5054800;28;19934;-81
2022/06/28 13:21:20;;;;;;;;;;;26.40;99.90;;;;;;5056459;28;19928;-84
2022/06/28 13:23:47;;;;;;;;;;;26.70;99.90;;;;;;5054080;28;19957;-85
2022/06/28 13:26:13;;;;;;;;;;;25.70;99.90;;;;;;5028244;28;19939;-82
2022/06/28 13:28:39;;;;;;;;;;;25.40;99.90;;;;;;5059547;28;19982;-81
2022/06/28 13:31:05;;;;;;;;;;;25.30;99.90;;;;;;5034843;28;20053;-80
2022/06/28 13:33:30;;;;;;;;;;;25.90;99.90;;;;;;5056282;28;19940;-81
2022/06/28 13:35:57;;;;;;;;;;;26.10;99.50;;;;;;5038048;28;19928;-83
2022/06/28 13:38:23;;;;;;;;;;;26.40;99.90;;;;;;5055636;28;20560;-82
2022/06/28 13:40:48;;;;;;;;;;;26.30;97.10;;;;;;5024865;28;19929;-83
2022/06/28 13:43:33;;;;;;;;;;;26.20;99.50;;;;;;5052083;28;20090;-82
2022/06/28 13:46:01;;;;;;;;;;;26.20;98.50;;;;;;5031336;28;19978;-82
2022/06/28 13:48:27;;;;;;;;;;;26.70;99.30;;;;;;5048183;28;20029;-81
2022/06/28 13:50:53;;;;;;;;;;;26.70;99.90;;;;;;5048872;28;20023;-81
2022/06/28 13:53:19;;;;;;;;;;;26.50;98.60;;;;;;5050576;28;20007;-82
2022/06/28 13:55:46;;;;;;;;;;;26.50;99.60;;;;;;5048768;28;19928;-82
2022/06/28 13:58:15;;;;;;;;;;;26.80;99.30;;;;;;5051248;28;19993;-81
2022/06/28 14:00:41;;;;;;;;;;;27.30;99.90;;;;;;5047534;28;20331;-82
2022/06/28 14:03:07;;;;;;;;;;;27.20;98.20;;;;;;5027398;28;19929;-81
2022/06/28 14:05:33;;;;;;;;;;;27.20;98.60;;;;;;5027743;28;20579;-82
2022/06/28 14:07:59;;;;;;;;;;;27.30;98.90;;;;;;5030549;28;20593;-81
2022/06/28 14:10:24;;;;;;;;;;;27.00;98.20;;;;;;5030350;28;19994;-83
2022/06/28 14:12:50;;;;;;;;;;;27.30;99.60;;;;;;5039241;28;19974;-81
2022/06/28 14:15:16;;;;;;;;;;;27.30;96.80;;;;;;5040666;28;19942;-80
2022/06/28 14:17:42;;;;;;;;;;;27.30;97.00;;;;;;5018126;28;19928;-81
2022/06/28 14:20:08;;;;;;;;;;;26.80;94.90;;;;;;5035920;28;20687;-81
2022/06/28 14:22:34;;;;;;;;;;;26.80;94.50;;;;;;5034735;28;20435;-80
2022/06/28 14:25:00;;;;;;;;;;;27.10;97.30;;;;;;5035012;28;19936;-82
2022/06/28 14:27:27;;;;;;;;;;;27.10;98.60;;;;;;5043458;28;20334;-80
2022/06/28 14:29:52;;;;;;;;;;;27.30;98.90;;;;;;5041907;28;20630;-81
2022/06/28 14:32:19;;;;;;;;;;;27.20;99.90;;;;;;5042180;28;19935;-82